Decoded Metar for K4MR (Melrose Gunnery Range in NM, United States) (IATA:N/A) | Meteo·Mobile Aviation Weather
aviador You're here:

K4MR Decoded Metar

Melrose Gunnery Range in NM, United States
Report Time2018-11-19 02:58:00
UTC Time2018-11-19 03:18:56
Flight Rules vfr VFR
Wind220° at 08 kt
W.Rank220° ranks 2
Current wind is below 220° avg. (11.5)
Visibility9999 m
Phenomena:N/A
Clouds:Few 210 Hf
Expected CloudBase > 800 ft AGL from Temp-Dew spread
CeilingNone
Temp-1°C
Dew Point-3°C (86% RH)
AAT-6.3°C
QNH1021 hPa
Raw Report
METAR K4MR 190258Z AUTO 22008KT 10SM FEW210 M01/M03 A3016 RMK AO2 SLP234
T10141031 51008 $=

Extra information for K4MR:More info

Metar Taf Metar & Taf Last 4 Metars F.Rules Stats Wind Profile Meteogram Temp Stats Airport Information Weather charts Add Link Nearby VenuesMetar ALERT Operation Metar Decoded Social comments